Terminal Aerodrome Forecast
Issued by NWS

Home | Current Version | Previous Version | Text Only | Print | Product List | Glossary On
Versions: 1 2 3 4 5 6 7 8 9 10 11 12 13
000
FTUS43 KOAX 261744
TAFSNY
TAF
KSNY 261744Z 2618/2718 02013KT 1SM -SN BR OVC035
      TEMPO 2618/2621 4SM -SN BR OVC023
     FM262200 36013KT 5SM -SN BR OVC035
     FM270200 33008KT P6SM OVC035
     FM270800 29009KT 2SM BR OVC025
     FM271500 29012KT P6SM BKN050=

USA.gov is the U.S. government's official web portal to all federal, state and local government web resources and services.